Time;durP1;ratioP1;P1;durP2;ratioP2;P2;SDS_P1;SDS_P2;PMS_P1;PMS_P2;Temp;Humidity;BMP_temperature;BMP_pressure;BME280_temperature;BME280_humidity;BME280_pressure;Samples;Min_cycle;Max_cycle;Signal;HPM_P1;HPM_P2
2022/04/07 00:00:53;;;;;;;67.45;37.03;;;4.60;99.90;;;;;;19811072;29;20509;-52
2022/04/07 00:10:56;;;;;;;72.10;39.65;;;4.50;99.90;;;;;;19838117;29;20043;-50
2022/04/07 00:21:00;;;;;;;80.10;41.78;;;4.50;99.90;;;;;;19838415;29;20453;-58
2022/04/07 00:31:02;;;;;;;77.40;40.90;;;4.50;99.90;;;;;;19836117;29;20556;-58
2022/04/07 00:41:05;;;;;;;77.53;40.30;;;4.50;99.90;;;;;;19850939;29;20100;-58
2022/04/07 00:51:08;;;;;;;80.30;40.28;;;4.40;99.90;;;;;;19864142;29;20062;-51
2022/04/07 01:01:10;;;;;;;71.10;38.92;;;4.50;99.90;;;;;;19853622;29;20042;-51
2022/04/07 01:11:13;;;;;;;70.13;38.88;;;4.40;99.90;;;;;;19815327;29;20484;-51
2022/04/07 01:21:17;;;;;;;74.55;40.25;;;4.40;99.90;;;;;;19847295;29;20043;-52
2022/04/07 01:31:20;;;;;;;70.57;36.67;;;4.50;99.90;;;;;;19819574;29;20047;-58
2022/04/07 01:41:25;;;;;;;71.93;38.40;;;4.40;99.90;;;;;;19879456;29;20454;-50
2022/04/07 01:51:30;;;;;;;81.47;40.40;;;4.40;99.90;;;;;;19864473;29;20541;-48
2022/04/07 02:01:32;;;;;;;91.40;46.53;;;4.40;99.90;;;;;;19855244;29;20047;-53
2022/04/07 02:11:35;;;;;;;96.43;46.65;;;4.30;99.90;;;;;;19806881;29;20063;-58
2022/04/07 02:21:38;;;;;;;103.93;51.30;;;4.10;99.90;;;;;;19865394;29;20524;-51
2022/04/07 02:31:41;;;;;;;85.82;41.92;;;3.90;99.90;;;;;;19862228;29;20560;-50
2022/04/07 02:41:43;;;;;;;88.25;42.80;;;3.30;99.90;;;;;;19827898;29;20563;-59
2022/04/07 02:51:45;;;;;;;108.57;51.50;;;2.90;99.90;;;;;;19871446;29;20573;-58
2022/04/07 03:01:48;;;;;;;79.25;39.53;;;2.80;99.90;;;;;;19837594;29;20043;-53
2022/04/07 03:11:50;;;;;;;85.25;40.53;;;2.40;99.90;;;;;;19868580;29;20184;-50
2022/04/07 03:21:53;;;;;;;95.28;42.83;;;2.10;99.90;;;;;;19810112;29;20055;-58
2022/04/07 03:31:56;;;;;;;106.15;47.85;;;2.10;99.90;;;;;;19826903;29;20120;-52
2022/04/07 03:41:59;;;;;;;115.78;49.40;;;2.70;99.90;;;;;;19844350;29;20070;-51
2022/04/07 03:52:01;;;;;;;91.88;43.65;;;3.00;99.90;;;;;;19796820;29;20495;-52
2022/04/07 04:02:06;;;;;;;83.95;40.95;;;3.10;99.90;;;;;;19858567;29;20119;-50
2022/04/07 04:12:09;;;;;;;87.43;43.35;;;3.20;99.90;;;;;;19846995;29;20070;-50
2022/04/07 04:22:12;;;;;;;90.30;40.65;;;3.30;99.90;;;;;;19850422;29;20043;-50
2022/04/07 04:32:15;;;;;;;76.88;37.35;;;3.20;99.90;;;;;;19832391;29;20047;-50
2022/04/07 04:42:17;;;;;;;73.22;36.35;;;3.20;99.90;;;;;;19822606;29;20035;-53
2022/04/07 04:52:20;;;;;;;67.93;32.40;;;3.30;99.90;;;;;;19881344;29;20080;-52
2022/04/07 05:02:22;;;;;;;70.50;33.97;;;3.20;99.90;;;;;;19863567;29;20035;-52
2022/04/07 05:12:26;;;;;;;78.75;38.75;;;3.20;99.90;;;;;;19870935;29;20075;-51
2022/04/07 05:22:30;;;;;;;71.88;34.35;;;3.20;99.90;;;;;;19814364;29;20047;-51
2022/04/07 05:32:32;;;;;;;82.78;38.60;;;2.90;99.90;;;;;;19843711;29;20043;-51
2022/04/07 05:42:35;;;;;;;67.43;31.88;;;2.50;99.90;;;;;;19847755;29;20035;-53
2022/04/07 05:52:37;;;;;;;61.22;29.83;;;2.30;99.90;;;;;;19845314;29;20059;-50
2022/04/07 06:02:41;;;;;;;52.10;26.05;;;2.10;99.90;;;;;;19859384;29;20494;-50
2022/04/07 06:12:46;;;;;;;64.63;30.90;;;2.30;99.90;;;;;;19856447;29;20100;-52
2022/04/07 06:22:49;;;;;;;57.70;28.40;;;2.60;99.90;;;;;;19841112;29;20035;-58
2022/04/07 06:32:52;;;;;;;57.35;28.90;;;2.90;99.90;;;;;;19836561;29;20066;-53
2022/04/07 06:42:57;;;;;;;56.88;28.13;;;3.30;99.90;;;;;;19833829;29;20042;-49
2022/04/07 06:53:00;;;;;;;42.22;24.35;;;4.10;99.90;;;;;;19856057;29;20043;-55
2022/04/07 07:03:04;;;;;;;40.28;23.15;;;5.70;99.90;;;;;;19830162;29;20047;-54
2022/04/07 07:13:06;;;;;;;38.15;23.00;;;7.30;99.90;;;;;;19822708;29;20104;-57
2022/04/07 07:23:09;;;;;;;32.42;20.02;;;8.80;99.90;;;;;;19807028;29;20104;-58
2022/04/07 07:33:12;;;;;;;28.45;17.75;;;10.60;99.90;;;;;;19858076;29;20043;-56
2022/04/07 07:43:14;;;;;;;24.02;14.70;;;11.20;99.90;;;;;;19834701;29;20035;-55
2022/04/07 07:53:18;;;;;;;33.00;19.10;;;11.30;99.90;;;;;;19799886;29;20149;-55
2022/04/07 08:03:20;;;;;;;23.80;15.45;;;11.30;99.90;;;;;;19799853;29;20525;-57
2022/04/07 08:13:22;;;;;;;23.20;15.63;;;11.70;99.90;;;;;;19799097;29;20108;-57
2022/04/07 08:23:26;;;;;;;30.33;17.00;;;11.90;99.90;;;;;;19807060;29;20499;-58
2022/04/07 08:33:29;;;;;;;32.45;18.98;;;11.70;99.90;;;;;;19866863;29;20565;-54
2022/04/07 08:43:33;;;;;;;34.00;18.48;;;11.40;99.90;;;;;;19816938;29;20039;-57
2022/04/07 08:53:38;;;;;;;31.90;18.88;;;11.70;99.90;;;;;;19825020;29;20047;-57
2022/04/07 09:03:42;;;;;;;24.80;16.00;;;12.00;99.90;;;;;;19852017;29;20384;-56
2022/04/07 09:13:46;;;;;;;28.20;16.73;;;12.70;99.90;;;;;;19857182;29;20035;-56
2022/04/07 09:23:52;;;;;;;24.67;16.17;;;13.30;99.90;;;;;;19855401;29;20038;-56
2022/04/07 09:33:56;;;;;;;32.75;18.67;;;13.60;99.90;;;;;;19883781;29;20047;-55
2022/04/07 09:44:01;;;;;;;26.95;16.70;;;13.90;99.90;;;;;;19851837;29;20035;-56
2022/04/07 09:54:09;;;;;;;24.58;16.33;;;14.20;99.90;;;;;;19808138;29;20147;-57
2022/04/07 10:04:12;;;;;;;25.45;15.75;;;14.70;99.90;;;;;;19807287;29;20040;-57
2022/04/07 10:14:18;;;;;;;27.08;17.40;;;14.90;99.90;;;;;;19807812;29;20088;-57
2022/04/07 10:24:46;;;;;;;24.08;15.70;;;15.00;99.90;;;;;;19843727;29;20421;-57
2022/04/07 10:34:59;;;;;;;24.42;16.83;;;14.90;99.90;;;;;;19804963;29;20576;-57
2022/04/07 10:45:05;;;;;;;28.05;16.70;;;15.00;99.90;;;;;;19832441;29;20444;-57
2022/04/07 10:55:13;;;;;;;23.25;15.60;;;15.40;99.90;;;;;;19878934;29;20115;-58
2022/04/07 11:05:24;;;;;;;27.95;17.13;;;15.50;99.90;;;;;;19876196;29;20039;-58
2022/04/07 11:15:51;;;;;;;37.15;17.08;;;15.30;99.90;;;;;;19802441;29;20043;-58
2022/04/07 11:26:10;;;;;;;26.33;16.27;;;15.30;99.90;;;;;;19801722;29;20373;-55
2022/04/07 11:36:14;;;;;;;26.85;15.93;;;14.40;99.90;;;;;;19801385;29;20063;-55
2022/04/07 11:46:28;;;;;;;24.70;15.18;;;15.30;99.90;;;;;;19845935;29;20072;-58
2022/04/07 11:56:32;;;;;;;28.50;18.17;;;15.60;99.70;;;;;;19842357;29;20507;-56
2022/04/07 12:06:37;;;;;;;23.42;15.68;;;15.90;99.70;;;;;;19805745;29;20510;-58
2022/04/07 12:16:45;;;;;;;25.85;16.35;;;16.40;98.70;;;;;;19818506;29;20092;-58
2022/04/07 12:26:49;;;;;;;;;;;17.20;96.40;;;;;;19868098;29;20042;-57
2022/04/07 12:36:52;;;;;;;26.63;18.17;;;17.10;93.60;;;;;;19851987;29;19917;-56
2022/04/07 12:46:57;;;;;;;27.13;17.25;;;16.50;93.10;;;;;;19798114;29;20108;-56
2022/04/07 12:57:14;;;;;;;28.05;18.50;;;16.20;95.90;;;;;;19844043;29;20515;-58
2022/04/07 13:07:18;;;;;;;27.85;18.23;;;15.60;97.10;;;;;;19836235;29;20550;-57
2022/04/07 13:17:21;;;;;;;24.17;16.27;;;15.30;98.10;;;;;;19810879;29;20043;-57
2022/04/07 13:27:24;;;;;;;24.25;15.38;;;15.60;95.70;;;;;;19836919;29;20046;-58
2022/04/07 13:37:27;;;;;;;26.65;17.25;;;15.60;95.60;;;;;;19834852;29;20065;-56
2022/04/07 13:47:29;;;;;;;26.30;16.33;;;15.50;95.60;;;;;;19830615;29;20111;-58
2022/04/07 13:57:32;;;;;;;21.02;12.95;;;15.90;95.50;;;;;;19878745;29;20054;-57
2022/04/07 14:07:37;;;;;;;16.38;9.23;;;15.80;92.00;;;;;;19867015;29;20042;-57
2022/04/07 14:17:40;;;;;;;17.23;8.30;;;15.30;91.40;;;;;;19835420;29;20039;-50
2022/04/07 14:27:43;;;;;;;20.38;12.18;;;13.90;90.90;;;;;;19806099;29;20067;-52
2022/04/07 14:37:47;;;;;;;17.60;10.63;;;13.40;93.80;;;;;;19809172;29;20112;-57
2022/04/07 14:47:50;;;;;;;20.92;14.02;;;12.90;92.20;;;;;;19804439;29;20572;-57
2022/04/07 14:57:53;;;;;;;20.77;11.32;;;12.70;95.20;;;;;;19803804;29;20422;-57
2022/04/07 15:07:58;;;;;;;16.92;10.18;;;12.40;93.90;;;;;;19829664;29;20077;-58
2022/04/07 15:18:03;;;;;;;18.25;10.98;;;12.30;93.10;;;;;;19832873;29;20048;-58
2022/04/07 15:28:07;;;;;;;17.15;9.35;;;12.10;94.50;;;;;;19832221;29;20051;-47
2022/04/07 15:38:09;;;;;;;14.93;8.88;;;11.70;94.70;;;;;;19819657;29;20461;-51
2022/04/07 15:48:12;;;;;;;10.90;6.82;;;11.60;94.70;;;;;;19808737;29;20043;-50
2022/04/07 15:58:14;;;;;;;12.52;6.82;;;11.80;93.10;;;;;;19843857;29;20476;-50
2022/04/07 16:08:17;;;;;;;14.80;8.93;;;11.50;92.40;;;;;;19810205;29;20047;-50
2022/04/07 16:18:20;;;;;;;16.85;9.75;;;11.10;94.30;;;;;;19827362;29;20046;-50
2022/04/07 16:28:23;;;;;;;18.10;10.55;;;10.40;96.30;;;;;;19830128;29;20171;-48
2022/04/07 16:38:25;;;;;;;21.65;10.98;;;9.70;98.70;;;;;;19859526;29;20050;-51
2022/04/07 16:48:28;;;;;;;16.08;9.73;;;9.20;99.90;;;;;;19860012;29;20427;-49
2022/04/07 16:58:31;;;;;;;18.42;10.60;;;9.10;99.90;;;;;;19852764;29;20115;-48
2022/04/07 17:08:35;;;;;;;15.00;7.65;;;9.00;99.90;;;;;;19859343;29;20116;-50
2022/04/07 17:18:37;;;;;;;11.73;7.18;;;8.90;99.30;;;;;;19853855;29;20108;-48
2022/04/07 17:28:41;;;;;;;13.52;7.22;;;8.50;99.90;;;;;;19863209;29;20095;-49
2022/04/07 17:38:44;;;;;;;12.18;7.43;;;8.10;99.90;;;;;;19884368;29;20047;-51
2022/04/07 17:48:49;;;;;;;11.77;6.05;;;7.80;99.90;;;;;;19883150;29;20042;-50
2022/04/07 17:58:52;;;;;;;13.88;6.97;;;7.80;97.90;;;;;;19819893;29;20075;-49
2022/04/07 18:08:54;;;;;;;6.70;3.60;;;7.50;99.30;;;;;;19873803;29;20072;-52
2022/04/07 18:18:57;;;;;;;6.15;2.60;;;7.90;95.50;;;;;;19850530;29;20043;-56
2022/04/07 18:29:00;;;;;;;5.47;2.33;;;8.70;93.20;;;;;;19806169;29;20548;-56
2022/04/07 18:39:03;;;;;;;5.63;2.47;;;8.40;93.50;;;;;;19812642;29;20100;-56
2022/04/07 18:49:06;;;;;;;5.28;2.88;;;8.60;93.60;;;;;;19842445;29;20089;-56
2022/04/07 18:59:09;;;;;;;8.00;3.75;;;8.70;92.90;;;;;;19872237;29;20115;-48
2022/04/07 19:09:12;;;;;;;8.65;4.60;;;8.50;94.50;;;;;;19854620;29;20051;-48
2022/04/07 19:19:15;;;;;;;12.32;4.35;;;7.60;96.10;;;;;;19831709;29;20046;-56
2022/04/07 19:29:18;;;;;;;11.32;4.25;;;6.80;98.10;;;;;;19876025;29;20039;-55
2022/04/07 19:39:21;;;;;;;9.00;4.35;;;6.70;97.90;;;;;;19811391;29;20043;-47
2022/04/07 19:49:24;;;;;;;7.65;4.07;;;7.30;97.60;;;;;;19844524;29;20074;-57
2022/04/07 19:59:27;;;;;;;11.90;5.05;;;7.00;98.00;;;;;;19871022;29;20055;-47
2022/04/07 20:09:30;;;;;;;9.95;4.72;;;6.80;98.80;;;;;;19809730;29;20100;-55
2022/04/07 20:19:33;;;;;;;10.90;5.45;;;6.60;99.70;;;;;;19846697;29;20447;-52
2022/04/07 20:29:37;;;;;;;15.73;7.38;;;6.50;99.90;;;;;;19819218;29;20067;-49
2022/04/07 20:39:39;;;;;;;16.10;7.25;;;6.80;99.90;;;;;;19806008;29;20554;-48
2022/04/07 20:49:42;;;;;;;12.65;6.40;;;6.40;99.90;;;;;;19798062;29;20047;-50
2022/04/07 20:59:44;;;;;;;13.70;6.35;;;6.30;99.90;;;;;;19831509;29;20047;-48
2022/04/07 21:09:47;;;;;;;17.65;7.70;;;6.10;99.90;;;;;;19870302;29;20123;-48
2022/04/07 21:19:49;;;;;;;15.65;7.65;;;5.80;99.90;;;;;;19829017;29;20043;-47
2022/04/07 21:29:53;;;;;;;15.75;7.60;;;5.60;99.90;;;;;;19822061;29;20043;-49
2022/04/07 21:39:55;;;;;;;16.23;8.38;;;5.90;99.90;;;;;;19868609;29;20104;-47
2022/04/07 21:49:57;;;;;;;15.90;6.50;;;5.70;99.90;;;;;;19820904;29;20116;-47
2022/04/07 22:00:00;;;;;;;16.98;7.65;;;5.50;99.90;;;;;;19809247;29;20082;-47
2022/04/07 22:10:04;;;;;;;17.90;6.97;;;5.60;99.90;;;;;;19807366;29;20083;-47
2022/04/07 22:20:08;;;;;;;14.23;7.38;;;5.40;99.90;;;;;;19806919;29;20112;-46
2022/04/07 22:30:12;;;;;;;14.82;7.47;;;5.20;99.90;;;;;;19846188;29;20392;-48
2022/04/07 22:40:15;;;;;;;15.40;9.32;;;5.50;99.90;;;;;;19864353;29;20042;-50
2022/04/07 22:50:19;;;;;;;17.58;9.02;;;5.60;99.90;;;;;;19855336;29;20070;-51
2022/04/07 23:00:22;;;;;;;16.45;9.35;;;5.40;99.90;;;;;;19805110;29;20201;-48
2022/04/07 23:10:25;;;;;;;19.42;10.23;;;5.70;99.90;;;;;;19807129;29;20039;-55
2022/04/07 23:20:28;;;;;;;15.63;8.68;;;5.90;99.90;;;;;;19802199;29;20051;-48
2022/04/07 23:30:32;;;;;;;21.90;9.57;;;6.40;99.90;;;;;;19815117;29;20047;-51
2022/04/07 23:40:36;;;;;;;15.15;8.65;;;6.70;99.90;;;;;;19860635;29;20043;-48
2022/04/07 23:50:39;;;;;;;15.63;9.00;;;6.90;99.90;;;;;;19874470;29;20495;-50
